Time;durP1;ratioP1;P1;durP2;ratioP2;P2;SDS_P1;SDS_P2;PMS_P1;PMS_P2;Temp;Humidity;BMP_temperature;BMP_pressure;BME280_temperature;BME280_humidity;BME280_pressure;Samples;Min_cycle;Max_cycle;Signal;HPM_P1;HPM_P2
2022/08/23 00:00:32;;;;;;;;;;;;;;;;;;2114955;28;20014;-43
2022/08/23 00:01:33;;;;;;;;;;;;;;;;;;2114756;28;19923;-44
2022/08/23 00:02:34;;;;;;;;;;;;;;;;;;2114817;28;19924;-44
2022/08/23 00:03:35;;;;;;;;;;;;;;;;;;2114778;28;19968;-43
2022/08/23 00:04:36;;;;;;;;;;;;;;;;;;2114703;28;19928;-45
2022/08/23 00:05:37;;;;;;;;;;;;;;;;;;2114815;28;19992;-45
2022/08/23 00:06:38;;;;;;;;;;;;;;;;;;2114688;28;19928;-44
2022/08/23 00:07:38;;;;;;;;;;;;;;;;;;2114800;28;20057;-44
2022/08/23 00:08:40;;;;;;;;;;;;;;;;;;2114718;28;19970;-44
2022/08/23 00:09:40;;;;;;;;;;;;;;;;;;2114736;28;19923;-43
2022/08/23 00:10:41;;;;;;;;;;;;;;;;;;2114660;28;19974;-45
2022/08/23 00:11:42;;;;;;;;;;;;;;;;;;2108390;28;20011;-43
2022/08/23 00:12:43;;;;;;;;;;;;;;;;;;2106287;28;20152;-44
2022/08/23 00:13:44;;;;;;;;;;;;;;;;;;2106289;28;20015;-45
2022/08/23 00:14:47;;;;;;;;;;;;;;;;;;2106352;28;19925;-44
2022/08/23 00:15:49;;;;;;;;;;;;;;;;;;2106230;28;20015;-43
2022/08/23 00:16:50;;;;;;;;;;;;;;;;;;2106153;28;20337;-44
2022/08/23 00:17:51;;;;;;;;;;;;;;;;;;2106406;28;19924;-46
2022/08/23 00:18:52;;;;;;;;;;;;;;;;;;2106407;28;19924;-44
2022/08/23 00:19:53;;;;;;;;;;;;;;;;;;2106314;28;19928;-43
2022/08/23 00:20:54;;;;;;;;;;;;;;;;;;2106345;28;20030;-44
2022/08/23 00:21:55;;;;;;;;;;;;;;;;;;2107322;28;19924;-43
2022/08/23 00:22:56;;;;;;;;;;;;;;;;;;2114556;28;19930;-43
2022/08/23 00:23:57;;;;;;;;;;;;;;;;;;2114728;28;20403;-44
2022/08/23 00:24:58;;;;;;;;;;;;;;;;;;2114690;28;20002;-44
2022/08/23 00:25:59;;;;;;;;;;;;;;;;;;2114741;28;19924;-44
2022/08/23 00:27:00;;;;;;;;;;;;;;;;;;2114542;28;20369;-44
2022/08/23 00:28:01;;;;;;;;;;;;;;;;;;2114713;28;20480;-46
2022/08/23 00:29:02;;;;;;;;;;;;;;;;;;2114664;28;19935;-43
2022/08/23 00:30:03;;;;;;;;;;;;;;;;;;2114803;28;20057;-43
2022/08/23 00:31:04;;;;;;;;;;;;;;;;;;2114613;28;20010;-44
2022/08/23 00:32:06;;;;;;;;;;;;;;;;;;2114564;28;20011;-44
2022/08/23 00:33:07;;;;;;;;;;;;;;;;;;2114625;28;20360;-45
2022/08/23 00:34:08;;;;;;;;;;;;;;;;;;2114678;28;19924;-44
2022/08/23 00:35:09;;;;;;;;;;;;;;;;;;2114428;28;19972;-45
2022/08/23 00:36:09;;;;;;;;;;;;;;;;;;2114437;28;20340;-43
2022/08/23 00:37:10;;;;;;;;;;;;;;;;;;2114748;28;19930;-43
2022/08/23 00:38:11;;;;;;;;;;;;;;;;;;2114613;28;20010;-43
2022/08/23 00:39:32;;;;;;;;;;;;;;;;;;2114700;28;19924;-44
2022/08/23 00:40:33;;;;;;;;;;;;;;;;;;2114503;28;19924;-44
2022/08/23 00:41:34;;;;;;;;;;;;;;;;;;2114499;28;19928;-43
2022/08/23 00:47:57;;;;;;;;;;;;;;;;;;2080242;28;19929;-45
2022/08/23 00:48:58;;;;;;;;;;;;;;;;;;2080261;28;19972;-43
2022/08/23 00:49:59;;;;;;;;;;;;;;;;;;2108140;28;20332;-45
2022/08/23 00:51:00;;;;;;;;;;;;;;;;;;2114602;28;19923;-45
2022/08/23 00:52:01;;;;;;;;;;;;;;;;;;2114475;28;19955;-44
2022/08/23 00:53:02;;;;;;;;;;;;;;;;;;2114421;28;19923;-43
2022/08/23 00:54:03;;;;;;;;;;;;;;;;;;2114548;28;19931;-44
2022/08/23 00:55:03;;;;;;;;;;;;;;;;;;2114450;28;20052;-44
2022/08/23 00:56:04;;;;;;;;;;;;;;;;;;2114376;28;19931;-44
2022/08/23 00:57:05;;;;;;;;;;;;;;;;;;2114564;28;19977;-45
2022/08/23 00:58:06;;;;;;;;;;;;;;;;;;2114564;28;20015;-44
2022/08/23 00:59:07;;;;;;;;;;;;;;;;;;2114396;28;19936;-44
2022/08/23 01:00:08;;;;;;;;;;;;;;;;;;2114512;28;19923;-44
2022/08/23 01:01:09;;;;;;;;;;;;;;;;;;2114624;28;19934;-44
2022/08/23 01:02:10;;;;;;;;;;;;;;;;;;2114373;28;19923;-44
2022/08/23 01:03:10;;;;;;;;;;;;;;;;;;2114411;28;19924;-45
2022/08/23 01:04:11;;;;;;;;;;;;;;;;;;2114599;28;19924;-44
2022/08/23 01:05:12;;;;;;;;;;;;;;;;;;2114146;28;20338;-45
2022/08/23 01:06:13;;;;;;;;;;;;;;;;;;2114414;28;19928;-44
2022/08/23 01:07:14;;;;;;;;;;;;;;;;;;2114414;28;20407;-46
2022/08/23 01:08:15;;;;;;;;;;;;;;;;;;2114514;28;19951;-45
2022/08/23 01:09:16;;;;;;;;;;;;;;;;;;2114580;28;20014;-45
2022/08/23 01:10:17;;;;;;;;;;;;;;;;;;2115663;28;19924;-44
2022/08/23 01:11:21;;;;;;;;;;;;;;;;;;2112597;28;19974;-46
2022/08/23 01:12:22;;;;;;;;;;;;;;;;;;2107457;28;20021;-45
2022/08/23 01:13:33;;;;;;;;;;;;;;;;;;2107502;28;20369;-44
2022/08/23 01:14:34;;;;;;;;;;;;;;;;;;2107432;28;19928;-45
2022/08/23 01:15:35;;;;;;;;;;;;;;;;;;2107421;28;19931;-45
2022/08/23 01:16:35;;;;;;;;;;;;;;;;;;2107543;28;20014;-45
2022/08/23 01:17:36;;;;;;;;;;;;;;;;;;2107635;28;19924;-45
2022/08/23 01:18:37;;;;;;;;;;;;;;;;;;2115860;28;19928;-45
2022/08/23 01:19:38;;;;;;;;;;;;;;;;;;2115841;28;20014;-44
2022/08/23 01:20:39;;;;;;;;;;;;;;;;;;2115885;28;20019;-46
2022/08/23 01:21:40;;;;;;;;;;;;;;;;;;2115918;28;20015;-45
2022/08/23 01:22:41;;;;;;;;;;;;;;;;;;2115848;28;19924;-44
2022/08/23 01:23:42;;;;;;;;;;;;;;;;;;2115758;28;19931;-44
2022/08/23 01:24:43;;;;;;;;;;;;;;;;;;2116090;28;20296;-45
2022/08/23 01:26:04;;;;;;;;;;;;;;;;;;2115888;28;19927;-45
2022/08/23 01:27:05;;;;;;;;;;;;;;;;;;2115668;28;20460;-44
2022/08/23 01:28:06;;;;;;;;;;;;;;;;;;2115815;28;19924;-46
2022/08/23 01:29:07;;;;;;;;;;;;;;;;;;2116107;28;20407;-44
2022/08/23 01:30:07;;;;;;;;;;;;;;;;;;2115692;28;20064;-43
2022/08/23 01:31:08;;;;;;;;;;;;;;;;;;2115725;28;20445;-44
2022/08/23 01:32:09;;;;;;;;;;;;;;;;;;2115802;28;19959;-46
2022/08/23 01:33:10;;;;;;;;;;;;;;;;;;2115821;28;19924;-44
2022/08/23 01:34:12;;;;;;;;;;;;;;;;;;2115783;28;19930;-43
2022/08/23 01:35:14;;;;;;;;;;;;;;;;;;2115819;28;20167;-45
2022/08/23 01:36:14;;;;;;;;;;;;;;;;;;2115648;28;19924;-44
2022/08/23 01:37:15;;;;;;;;;;;;;;;;;;2115686;28;19924;-43
2022/08/23 01:38:16;;;;;;;;;;;;;;;;;;2115863;28;20219;-43
2022/08/23 01:39:17;;;;;;;;;;;;;;;;;;2115668;28;20274;-44
2022/08/23 01:40:18;;;;;;;;;;;;;;;;;;2115902;28;20014;-43
2022/08/23 01:41:19;;;;;;;;;;;;;;;;;;2115568;28;19924;-44
2022/08/23 01:42:20;;;;;;;;;;;;;;;;;;2115728;28;19977;-43
2022/08/23 01:43:21;;;;;;;;;;;;;;;;;;2115762;28;19962;-44
2022/08/23 01:44:22;;;;;;;;;;;;;;;;;;2116050;28;19928;-43
2022/08/23 01:45:23;;;;;;;;;;;;;;;;;;2115849;28;20345;-44
2022/08/23 01:46:24;;;;;;;;;;;;;;;;;;2115652;28;20315;-43
2022/08/23 01:47:25;;;;;;;;;;;;;;;;;;2116025;28;20061;-43
2022/08/23 01:48:26;;;;;;;;;;;;;;;;;;2115552;28;19931;-44
2022/08/23 01:49:27;;;;;;;;;;;;;;;;;;2115794;28;20380;-44
2022/08/23 01:50:28;;;;;;;;;;;;;;;;;;2115696;28;19977;-43
2022/08/23 01:51:29;;;;;;;;;;;;;;;;;;2115693;28;20192;-44
2022/08/23 01:52:30;;;;;;;;;;;;;;;;;;2115690;28;19924;-44
2022/08/23 01:53:31;;;;;;;;;;;;;;;;;;2115761;28;19931;-43
2022/08/23 01:54:32;;;;;;;;;;;;;;;;;;2115675;28;20258;-44
2022/08/23 01:55:33;;;;;;;;;;;;;;;;;;2115672;28;19924;-43
2022/08/23 01:56:34;;;;;;;;;;;;;;;;;;2115564;28;20453;-45
2022/08/23 01:57:39;;;;;;;;;;;;;;;;;;2115710;28;19925;-45
2022/08/23 01:58:40;;;;;;;;;;;;;;;;;;2115781;28;19924;-44
2022/08/23 01:59:41;;;;;;;;;;;;;;;;;;2115563;28;19989;-44
2022/08/23 02:00:42;;;;;;;;;;;;;;;;;;2115722;28;19924;-45
2022/08/23 02:01:43;;;;;;;;;;;;;;;;;;2115314;28;20002;-44
2022/08/23 02:02:45;;;;;;;;;;;;;;;;;;2115518;28;20380;-45
2022/08/23 02:03:46;;;;;;;;;;;;;;;;;;2115547;28;20073;-43
2022/08/23 02:04:47;;;;;;;;;;;;;;;;;;2115689;28;19966;-45
2022/08/23 02:05:48;;;;;;;;;;;;;;;;;;2115524;28;20031;-45
2022/08/23 02:06:49;;;;;;;;;;;;;;;;;;2115649;28;19999;-44
2022/08/23 02:07:49;;;;;;;;;;;;;;;;;;2115653;28;20360;-44
2022/08/23 02:08:59;;;;;;;;;;;;;;;;;;2115509;28;19931;-44
2022/08/23 02:10:00;;;;;;;;;;;;;;;;;;2115597;28;19934;-44
2022/08/23 02:11:01;;;;;;;;;;;;;;;;;;2115193;28;20010;-45
2022/08/23 02:12:02;;;;;;;;;;;;;;;;;;2107034;28;19931;-45
2022/08/23 02:13:03;;;;;;;;;;;;;;;;;;2107059;28;19973;-44
2022/08/23 02:14:04;;;;;;;;;;;;;;;;;;2107056;28;20308;-44
2022/08/23 02:15:05;;;;;;;;;;;;;;;;;;2106981;28;19953;-45
2022/08/23 02:16:06;;;;;;;;;;;;;;;;;;2107101;28;19924;-46
2022/08/23 02:17:07;;;;;;;;;;;;;;;;;;2107049;28;20011;-44
2022/08/23 02:18:08;;;;;;;;;;;;;;;;;;2107193;28;20003;-45
2022/08/23 02:19:09;;;;;;;;;;;;;;;;;;2107006;28;19993;-45
2022/08/23 02:20:10;;;;;;;;;;;;;;;;;;2107014;28;20019;-44
2022/08/23 02:21:11;;;;;;;;;;;;;;;;;;2106531;28;19977;-44
2022/08/23 02:22:11;;;;;;;;;;;;;;;;;;2106669;28;19924;-46
2022/08/23 02:23:12;;;;;;;;;;;;;;;;;;2107039;28;19928;-44
2022/08/23 02:24:13;;;;;;;;;;;;;;;;;;2107017;28;19928;-45
2022/08/23 02:25:14;;;;;;;;;;;;;;;;;;2107170;28;19928;-44
2022/08/23 02:26:15;;;;;;;;;;;;;;;;;;2106958;28;20003;-44
2022/08/23 02:27:16;;;;;;;;;;;;;;;;;;2107102;28;19962;-45
2022/08/23 02:28:17;;;;;;;;;;;;;;;;;;2106938;28;19967;-44
2022/08/23 02:29:18;;;;;;;;;;;;;;;;;;2107089;28;19928;-44
2022/08/23 02:30:18;;;;;;;;;;;;;;;;;;2106956;28;20278;-44
2022/08/23 02:31:19;;;;;;;;;;;;;;;;;;2106936;28;19924;-44
2022/08/23 02:32:20;;;;;;;;;;;;;;;;;;2107101;28;19924;-47
2022/08/23 02:33:21;;;;;;;;;;;;;;;;;;2106870;28;19969;-45
2022/08/23 02:34:22;;;;;;;;;;;;;;;;;;2107280;28;20352;-43
2022/08/23 02:35:23;;;;;;;;;;;;;;;;;;2106880;28;19924;-43
2022/08/23 02:36:24;;;;;;;;;;;;;;;;;;2107147;28;19928;-44
2022/08/23 02:37:25;;;;;;;;;;;;;;;;;;2106989;28;20364;-44
2022/08/23 02:38:25;;;;;;;;;;;;;;;;;;2106980;28;20270;-43
2022/08/23 02:39:26;;;;;;;;;;;;;;;;;;2106831;28;19934;-46
2022/08/23 02:40:27;;;;;;;;;;;;;;;;;;2106947;28;19924;-45
2022/08/23 02:41:28;;;;;;;;;;;;;;;;;;2106789;28;19932;-43
2022/08/23 02:42:29;;;;;;;;;;;;;;;;;;2106901;28;20059;-43
2022/08/23 02:43:30;;;;;;;;;;;;;;;;;;2106872;28;20464;-43
2022/08/23 02:44:33;;;;;;;;;;;;;;;;;;2106926;28;19924;-43
2022/08/23 02:45:34;;;;;;;;;;;;;;;;;;2107077;28;19928;-45
2022/08/23 02:46:35;;;;;;;;;;;;;;;;;;2106746;28;20371;-43
2022/08/23 02:47:36;;;;;;;;;;;;;;;;;;2107197;28;19932;-44
2022/08/23 02:48:37;;;;;;;;;;;;;;;;;;2106876;28;19977;-43
2022/08/23 02:49:38;;;;;;;;;;;;;;;;;;2107067;28;20335;-44
2022/08/23 02:50:38;;;;;;;;;;;;;;;;;;2106874;28;19954;-44
2022/08/23 02:51:40;;;;;;;;;;;;;;;;;;2106799;28;20266;-44
2022/08/23 02:52:41;;;;;;;;;;;;;;;;;;2106967;28;20014;-43
2022/08/23 02:53:42;;;;;;;;;;;;;;;;;;2106822;28;19924;-43
2022/08/23 02:54:43;;;;;;;;;;;;;;;;;;2106863;28;19924;-44
2022/08/23 02:55:44;;;;;;;;;;;;;;;;;;2106801;28;19985;-43
2022/08/23 02:56:44;;;;;;;;;;;;;;;;;;2106784;28;19982;-45
2022/08/23 02:57:45;;;;;;;;;;;;;;;;;;2110404;28;19924;-43
2022/08/23 02:58:46;;;;;;;;;;;;;;;;;;2115370;28;19984;-44
2022/08/23 02:59:47;;;;;;;;;;;;;;;;;;2115043;28;20362;-44
2022/08/23 03:00:48;;;;;;;;;;;;;;;;;;2115246;28;20388;-43
2022/08/23 03:01:50;;;;;;;;;;;;;;;;;;2115087;28;19924;-43
2022/08/23 03:02:51;;;;;;;;;;;;;;;;;;2115297;28;19924;-43
2022/08/23 03:03:52;;;;;;;;;;;;;;;;;;2115249;28;20026;-43
2022/08/23 03:04:52;;;;;;;;;;;;;;;;;;2115187;28;20367;-43
2022/08/23 03:05:53;;;;;;;;;;;;;;;;;;2115477;28;19924;-43
2022/08/23 03:06:54;;;;;;;;;;;;;;;;;;2115038;28;20051;-43
2022/08/23 03:07:55;;;;;;;;;;;;;;;;;;2115293;28;20289;-43
2022/08/23 03:08:56;;;;;;;;;;;;;;;;;;2115121;28;20288;-43
2022/08/23 03:09:57;;;;;;;;;;;;;;;;;;2115481;28;19924;-44
2022/08/23 03:10:58;;;;;;;;;;;;;;;;;;2115309;28;20018;-44
2022/08/23 03:11:59;;;;;;;;;;;;;;;;;;2106680;28;20061;-44
2022/08/23 03:13:00;;;;;;;;;;;;;;;;;;2106694;28;19924;-43
2022/08/23 03:14:00;;;;;;;;;;;;;;;;;;2106890;28;19950;-43
2022/08/23 03:15:01;;;;;;;;;;;;;;;;;;2106716;28;20381;-44
2022/08/23 03:16:02;;;;;;;;;;;;;;;;;;2106736;28;19931;-44
2022/08/23 03:17:03;;;;;;;;;;;;;;;;;;2106820;28;19947;-44
2022/08/23 03:18:04;;;;;;;;;;;;;;;;;;2106859;28;20007;-44
2022/08/23 03:19:05;;;;;;;;;;;;;;;;;;2106889;28;19970;-44
2022/08/23 03:20:06;;;;;;;;;;;;;;;;;;2106780;28;20011;-43
2022/08/23 03:21:07;;;;;;;;;;;;;;;;;;2106668;28;19931;-44
2022/08/23 03:22:09;;;;;;;;;;;;;;;;;;2106608;28;19924;-43
2022/08/23 03:23:10;;;;;;;;;;;;;;;;;;2106745;28;19931;-44
2022/08/23 03:24:11;;;;;;;;;;;;;;;;;;2106671;28;19924;-43
2022/08/23 03:25:12;;;;;;;;;;;;;;;;;;2106512;28;20007;-44
2022/08/23 03:26:12;;;;;;;;;;;;;;;;;;2106872;28;20023;-45
2022/08/23 03:27:14;;;;;;;;;;;;;;;;;;2106627;28;19925;-45
2022/08/23 03:28:15;;;;;;;;;;;;;;;;;;2106521;28;20030;-44
2022/08/23 03:29:16;;;;;;;;;;;;;;;;;;2106560;28;20371;-45
2022/08/23 03:30:17;;;;;;;;;;;;;;;;;;2106748;28;19924;-45
2022/08/23 03:31:20;;;;;;;;;;;;;;;;;;2106435;28;20365;-45
2022/08/23 03:32:21;;;;;;;;;;;;;;;;;;2106547;28;19928;-46
2022/08/23 03:33:22;;;;;;;;;;;;;;;;;;2105424;28;19924;-45
2022/08/23 03:34:23;;;;;;;;;;;;;;;;;;2106749;28;20020;-44
2022/08/23 03:35:24;;;;;;;;;;;;;;;;;;2106913;28;19930;-44
2022/08/23 03:36:25;;;;;;;;;;;;;;;;;;2106497;28;19928;-44
2022/08/23 03:37:28;;;;;;;;;;;;;;;;;;2106627;28;19924;-44
2022/08/23 03:38:29;;;;;;;;;;;;;;;;;;2106493;28;20277;-44
2022/08/23 03:39:30;;;;;;;;;;;;;;;;;;2106598;28;20363;-44
2022/08/23 03:40:31;;;;;;;;;;;;;;;;;;2106449;28;19924;-44
2022/08/23 03:41:32;;;;;;;;;;;;;;;;;;2106799;28;19977;-43
2022/08/23 03:42:33;;;;;;;;;;;;;;;;;;2106459;28;19924;-45
2022/08/23 03:43:34;;;;;;;;;;;;;;;;;;2107039;28;19964;-43
2022/08/23 03:44:35;;;;;;;;;;;;;;;;;;2106635;28;20379;-44
2022/08/23 03:45:35;;;;;;;;;;;;;;;;;;2106484;28;20308;-46
2022/08/23 03:46:37;;;;;;;;;;;;;;;;;;2106589;28;19924;-44
2022/08/23 03:47:38;;;;;;;;;;;;;;;;;;2106666;28;19924;-43
2022/08/23 03:48:40;;;;;;;;;;;;;;;;;;2106565;28;19971;-44
2022/08/23 03:49:40;;;;;;;;;;;;;;;;;;2106478;28;19928;-45
2022/08/23 03:50:41;;;;;;;;;;;;;;;;;;2106688;28;19924;-46
2022/08/23 03:51:42;;;;;;;;;;;;;;;;;;2106420;28;19931;-45
2022/08/23 03:52:43;;;;;;;;;;;;;;;;;;2106554;28;20327;-46
2022/08/23 03:53:45;;;;;;;;;;;;;;;;;;2108274;28;19928;-45
2022/08/23 03:54:46;;;;;;;;;;;;;;;;;;2114893;28;19923;-45
2022/08/23 03:55:47;;;;;;;;;;;;;;;;;;2114820;28;19934;-45
2022/08/23 03:56:48;;;;;;;;;;;;;;;;;;2114760;28;19959;-47
2022/08/23 03:57:48;;;;;;;;;;;;;;;;;;2114807;28;20424;-45
2022/08/23 03:58:49;;;;;;;;;;;;;;;;;;2114782;28;19924;-44
2022/08/23 03:59:50;;;;;;;;;;;;;;;;;;2114980;28;20006;-45
2022/08/23 04:00:51;;;;;;;;;;;;;;;;;;2114890;28;19924;-44
2022/08/23 04:01:52;;;;;;;;;;;;;;;;;;2114819;28;20296;-44
2022/08/23 04:02:53;;;;;;;;;;;;;;;;;;2114764;28;19931;-45
2022/08/23 04:03:54;;;;;;;;;;;;;;;;;;2115150;28;19963;-43
2022/08/23 04:04:56;;;;;;;;;;;;;;;;;;2114915;28;19959;-44
2022/08/23 04:05:57;;;;;;;;;;;;;;;;;;2114809;28;19931;-44
2022/08/23 04:06:58;;;;;;;;;;;;;;;;;;2114725;28;19924;-44
2022/08/23 04:08:01;;;;;;;;;;;;;;;;;;2114859;28;20391;-43
2022/08/23 04:09:02;;;;;;;;;;;;;;;;;;2115116;28;20288;-44
2022/08/23 04:10:03;;;;;;;;;;;;;;;;;;2114777;28;19924;-44
2022/08/23 04:11:04;;;;;;;;;;;;;;;;;;2113845;28;19923;-45
2022/08/23 04:12:04;;;;;;;;;;;;;;;;;;2106443;28;20010;-45
2022/08/23 04:13:12;;;;;;;;;;;;;;;;;;2106443;28;19924;-45
2022/08/23 04:14:13;;;;;;;;;;;;;;;;;;2106511;28;20008;-46
2022/08/23 04:15:14;;;;;;;;;;;;;;;;;;2106465;28;20046;-45
2022/08/23 04:16:17;;;;;;;;;;;;;;;;;;2106372;28;19961;-44
2022/08/23 04:17:19;;;;;;;;;;;;;;;;;;2106389;28;19969;-44
2022/08/23 04:18:21;;;;;;;;;;;;;;;;;;2106426;28;19924;-44
2022/08/23 04:19:22;;;;;;;;;;;;;;;;;;2106452;28;20407;-45
2022/08/23 04:20:23;;;;;;;;;;;;;;;;;;2106318;28;20047;-44
2022/08/23 04:21:24;;;;;;;;;;;;;;;;;;2106190;28;20464;-45
2022/08/23 04:22:25;;;;;;;;;;;;;;;;;;2106752;28;19924;-44
2022/08/23 04:23:26;;;;;;;;;;;;;;;;;;2106148;28;19924;-46
2022/08/23 04:24:27;;;;;;;;;;;;;;;;;;2106419;28;20404;-46
2022/08/23 04:25:30;;;;;;;;;;;;;;;;;;2107138;28;19924;-45
2022/08/23 04:26:35;;;;;;;;;;;;;;;;;;2106101;28;20270;-44
2022/08/23 04:27:36;;;;;;;;;;;;;;;;;;2106393;28;19930;-44
2022/08/23 04:28:37;;;;;;;;;;;;;;;;;;2106244;28;20345;-44
2022/08/23 04:29:38;;;;;;;;;;;;;;;;;;2106112;28;20073;-43
2022/08/23 04:30:39;;;;;;;;;;;;;;;;;;2106436;28;20407;-44
2022/08/23 04:31:40;;;;;;;;;;;;;;;;;;2106413;28;19969;-44
2022/08/23 04:32:41;;;;;;;;;;;;;;;;;;2106284;28;19931;-43
2022/08/23 04:33:42;;;;;;;;;;;;;;;;;;2106781;28;19924;-45
2022/08/23 04:34:43;;;;;;;;;;;;;;;;;;2106427;28;20008;-44
2022/08/23 04:35:46;;;;;;;;;;;;;;;;;;2106055;28;20039;-45
2022/08/23 04:36:47;;;;;;;;;;;;;;;;;;2106340;28;19930;-44
2022/08/23 04:37:52;;;;;;;;;;;;;;;;;;2106360;28;19924;-45
2022/08/23 04:38:53;;;;;;;;;;;;;;;;;;2106185;28;19967;-44
2022/08/23 04:42:32;;;;;;;;;;;;;;;;;;2106383;28;20292;-43
2022/08/23 04:43:33;;;;;;;;;;;;;;;;;;2106985;28;20019;-45
2022/08/23 04:44:34;;;;;;;;;;;;;;;;;;2106310;28;19939;-44
2022/08/23 04:45:36;;;;;;;;;;;;;;;;;;2107727;28;19963;-46
2022/08/23 04:46:38;;;;;;;;;;;;;;;;;;2107702;28;20015;-45
2022/08/23 04:47:40;;;;;;;;;;;;;;;;;;2107703;28;19924;-44
2022/08/23 04:48:41;;;;;;;;;;;;;;;;;;2107873;28;20010;-44
2022/08/23 04:49:42;;;;;;;;;;;;;;;;;;2107795;28;19955;-45
2022/08/23 04:50:43;;;;;;;;;;;;;;;;;;2115186;28;20404;-44
2022/08/23 04:51:43;;;;;;;;;;;;;;;;;;2116004;28;20014;-43
2022/08/23 04:52:44;;;;;;;;;;;;;;;;;;2116610;28;19931;-44
2022/08/23 04:53:45;;;;;;;;;;;;;;;;;;2116434;28;19924;-43
2022/08/23 04:54:46;;;;;;;;;;;;;;;;;;2116013;28;19924;-44
2022/08/23 04:55:48;;;;;;;;;;;;;;;;;;2115939;28;20023;-43
2022/08/23 04:56:49;;;;;;;;;;;;;;;;;;2115879;28;20080;-43
2022/08/23 04:57:51;;;;;;;;;;;;;;;;;;2116193;28;19931;-43
2022/08/23 04:58:52;;;;;;;;;;;;;;;;;;2116002;28;19923;-43
2022/08/23 04:59:53;;;;;;;;;;;;;;;;;;2116074;28;19975;-44
2022/08/23 05:00:55;;;;;;;;;;;;;;;;;;2116102;28;19965;-43
2022/08/23 05:01:56;;;;;;;;;;;;;;;;;;2115810;28;19950;-43
2022/08/23 05:02:57;;;;;;;;;;;;;;;;;;2116388;28;20380;-45
2022/08/23 05:03:59;;;;;;;;;;;;;;;;;;2116217;28;19988;-44
2022/08/23 05:05:00;;;;;;;;;;;;;;;;;;2116714;28;19994;-45
2022/08/23 05:06:02;;;;;;;;;;;;;;;;;;2115943;28;19972;-45
2022/08/23 05:07:03;;;;;;;;;;;;;;;;;;2115901;28;19966;-47
2022/08/23 05:08:04;;;;;;;;;;;;;;;;;;2116238;28;20014;-44
2022/08/23 05:09:05;;;;;;;;;;;;;;;;;;2116415;28;20061;-43
2022/08/23 05:10:06;;;;;;;;;;;;;;;;;;2116308;28;20380;-44
2022/08/23 05:11:07;;;;;;;;;;;;;;;;;;2115735;28;20498;-43
2022/08/23 05:12:08;;;;;;;;;;;;;;;;;;2115935;28;19946;-43
2022/08/23 05:13:09;;;;;;;;;;;;;;;;;;2116305;28;19949;-44
2022/08/23 05:14:10;;;;;;;;;;;;;;;;;;2115937;28;20310;-45
2022/08/23 05:15:11;;;;;;;;;;;;;;;;;;2117217;28;20544;-43
2022/08/23 05:16:12;;;;;;;;;;;;;;;;;;2115954;28;19973;-43
2022/08/23 05:17:13;;;;;;;;;;;;;;;;;;2115989;28;20014;-43
2022/08/23 05:18:14;;;;;;;;;;;;;;;;;;2115901;28;20312;-43
2022/08/23 05:19:15;;;;;;;;;;;;;;;;;;2116143;28;20042;-44
2022/08/23 05:20:16;;;;;;;;;;;;;;;;;;2116012;28;20026;-45
2022/08/23 05:21:18;;;;;;;;;;;;;;;;;;2115756;28;19930;-43
2022/08/23 05:22:19;;;;;;;;;;;;;;;;;;2116283;28;20015;-45
2022/08/23 05:23:20;;;;;;;;;;;;;;;;;;2116048;28;19930;-45
2022/08/23 05:24:26;;;;;;;;;;;;;;;;;;2115897;28;19924;-45
2022/08/23 05:25:48;;;;;;;;;;;;;;;;;;2115907;28;19974;-46
2022/08/23 05:26:48;;;;;;;;;;;;;;;;;;2115644;28;19963;-46
2022/08/23 05:27:49;;;;;;;;;;;;;;;;;;2116352;28;19931;-46
2022/08/23 05:28:50;;;;;;;;;;;;;;;;;;2116738;28;20388;-47
2022/08/23 05:29:53;;;;;;;;;;;;;;;;;;2115830;28;20390;-45
2022/08/23 05:30:54;;;;;;;;;;;;;;;;;;2115958;28;20015;-45
2022/08/23 05:31:57;;;;;;;;;;;;;;;;;;2115746;28;19928;-46
2022/08/23 05:32:59;;;;;;;;;;;;;;;;;;2116054;28;19923;-44
2022/08/23 05:34:00;;;;;;;;;;;;;;;;;;2115915;28;19969;-44
2022/08/23 05:35:02;;;;;;;;;;;;;;;;;;2116467;28;19928;-44
2022/08/23 05:36:03;;;;;;;;;;;;;;;;;;2116373;28;20006;-44
2022/08/23 05:37:04;;;;;;;;;;;;;;;;;;2116147;28;19924;-44
2022/08/23 05:38:05;;;;;;;;;;;;;;;;;;2115942;28;19973;-43
2022/08/23 05:39:06;;;;;;;;;;;;;;;;;;2116506;28;19924;-44
2022/08/23 05:40:06;;;;;;;;;;;;;;;;;;2116235;28;19943;-44
2022/08/23 05:41:09;;;;;;;;;;;;;;;;;;2115955;28;19930;-44
2022/08/23 05:42:09;;;;;;;;;;;;;;;;;;2116185;28;20015;-44
2022/08/23 05:43:10;;;;;;;;;;;;;;;;;;2115811;28;20017;-44
2022/08/23 05:44:11;;;;;;;;;;;;;;;;;;2115981;28;20424;-43
2022/08/23 05:45:12;;;;;;;;;;;;;;;;;;2116055;28;20000;-44
2022/08/23 05:46:13;;;;;;;;;;;;;;;;;;2115806;28;20057;-46
2022/08/23 05:47:14;;;;;;;;;;;;;;;;;;2115913;28;19931;-43
2022/08/23 05:48:15;;;;;;;;;;;;;;;;;;2115589;28;20343;-47
2022/08/23 05:49:16;;;;;;;;;;;;;;;;;;2116250;28;19936;-45
2022/08/23 05:50:21;;;;;;;;;;;;;;;;;;2116061;28;19955;-45
2022/08/23 05:51:22;;;;;;;;;;;;;;;;;;2115839;28;19924;-45
2022/08/23 05:52:23;;;;;;;;;;;;;;;;;;2115762;28;19953;-45
2022/08/23 05:53:24;;;;;;;;;;;;;;;;;;2115702;28;19923;-45
2022/08/23 05:54:25;;;;;;;;;;;;;;;;;;2115952;28;20022;-45
2022/08/23 05:55:26;;;;;;;;;;;;;;;;;;2115568;28;19931;-45
2022/08/23 05:56:30;;;;;;;;;;;;;;;;;;2114447;28;19927;-49
2022/08/23 05:57:30;;;;;;;;;;;;;;;;;;2115493;28;20011;-44
2022/08/23 05:58:31;;;;;;;;;;;;;;;;;;2115741;28;19978;-47
2022/08/23 05:59:32;;;;;;;;;;;;;;;;;;2115615;28;19931;-44
2022/08/23 06:00:33;;;;;;;;;;;;;;;;;;2115701;28;20495;-46
2022/08/23 06:01:38;;;;;;;;;;;;;;;;;;2116203;28;19924;-43
2022/08/23 06:02:39;;;;;;;;;;;;;;;;;;2115701;28;20387;-44
2022/08/23 06:03:40;;;;;;;;;;;;;;;;;;2115889;28;20011;-43
2022/08/23 06:04:41;;;;;;;;;;;;;;;;;;2116310;28;20018;-44
2022/08/23 06:05:41;;;;;;;;;;;;;;;;;;2115919;28;19931;-44
2022/08/23 06:06:43;;;;;;;;;;;;;;;;;;2115700;28;20281;-45
2022/08/23 06:07:43;;;;;;;;;;;;;;;;;;2115728;28;20042;-45
2022/08/23 06:08:45;;;;;;;;;;;;;;;;;;2115782;28;19930;-44
2022/08/23 06:09:47;;;;;;;;;;;;;;;;;;2115875;28;20016;-45
2022/08/23 06:10:48;;;;;;;;;;;;;;;;;;2115722;28;20441;-44
2022/08/23 06:11:49;;;;;;;;;;;;;;;;;;2108209;28;19999;-45
2022/08/23 06:12:50;;;;;;;;;;;;;;;;;;2106963;28;20362;-44
2022/08/23 06:13:50;;;;;;;;;;;;;;;;;;2107128;28;20065;-44
2022/08/23 06:14:52;;;;;;;;;;;;;;;;;;2107089;28;20332;-44
2022/08/23 06:15:52;;;;;;;;;;;;;;;;;;2107266;28;19924;-45
2022/08/23 06:16:54;;;;;;;;;;;;;;;;;;2107403;28;19924;-46
2022/08/23 06:17:56;;;;;;;;;;;;;;;;;;2107086;28;20006;-44
2022/08/23 06:18:57;;;;;;;;;;;;;;;;;;2107360;28;19931;-43
2022/08/23 06:19:58;;;;;;;;;;;;;;;;;;2107351;28;19924;-45
2022/08/23 06:21:00;;;;;;;;;;;;;;;;;;2107028;28;19924;-45
2022/08/23 06:22:01;;;;;;;;;;;;;;;;;;2107072;28;20132;-44
2022/08/23 06:23:02;;;;;;;;;;;;;;;;;;2107047;28;20014;-44
2022/08/23 06:24:03;;;;;;;;;;;;;;;;;;2107609;28;20335;-44
2022/08/23 06:25:04;;;;;;;;;;;;;;;;;;2107237;28;19931;-45
2022/08/23 06:26:08;;;;;;;;;;;;;;;;;;2107643;28;19932;-44
2022/08/23 06:27:10;;;;;;;;;;;;;;;;;;2107366;28;20011;-46
2022/08/23 06:28:12;;;;;;;;;;;;;;;;;;2106981;28;20019;-44
2022/08/23 06:29:13;;;;;;;;;;;;;;;;;;2107264;28;19924;-45
2022/08/23 06:30:14;;;;;;;;;;;;;;;;;;2107610;28;19928;-44
2022/08/23 06:31:15;;;;;;;;;;;;;;;;;;2107280;28;19928;-43
2022/08/23 06:32:15;;;;;;;;;;;;;;;;;;2107728;28;19989;-44
2022/08/23 06:33:17;;;;;;;;;;;;;;;;;;2106925;28;19928;-45
2022/08/23 06:34:17;;;;;;;;;;;;;;;;;;2106821;28;19924;-45
2022/08/23 06:35:19;;;;;;;;;;;;;;;;;;2107178;28;20289;-44
2022/08/23 06:36:38;;;;;;;;;;;;;;;;;;2106821;28;19977;-44
2022/08/23 06:37:39;;;;;;;;;;;;;;;;;;2106999;28;19924;-44
2022/08/23 06:38:40;;;;;;;;;;;;;;;;;;2107123;28;20232;-45
2022/08/23 06:39:41;;;;;;;;;;;;;;;;;;2107204;28;19967;-43
2022/08/23 06:40:42;;;;;;;;;;;;;;;;;;2106882;28;20404;-42
2022/08/23 06:41:43;;;;;;;;;;;;;;;;;;2107205;28;19924;-45
2022/08/23 06:42:44;;;;;;;;;;;;;;;;;;2110424;28;20011;-44
2022/08/23 06:43:45;;;;;;;;;;;;;;;;;;2115608;28;20369;-45
2022/08/23 06:44:45;;;;;;;;;;;;;;;;;;2115171;28;19955;-45
2022/08/23 06:45:46;;;;;;;;;;;;;;;;;;2115329;28;20023;-43
2022/08/23 06:46:55;;;;;;;;;;;;;;;;;;2116123;28;19923;-45
2022/08/23 06:47:56;;;;;;;;;;;;;;;;;;2115451;28;19928;-43
2022/08/23 06:48:57;;;;;;;;;;;;;;;;;;2115828;28;19930;-44
2022/08/23 06:49:58;;;;;;;;;;;;;;;;;;2115502;28;19924;-44
2022/08/23 06:50:59;;;;;;;;;;;;;;;;;;2115618;28;20284;-46
2022/08/23 06:52:00;;;;;;;;;;;;;;;;;;2115605;28;19978;-43
2022/08/23 06:53:01;;;;;;;;;;;;;;;;;;2115892;28;19924;-45
2022/08/23 06:54:02;;;;;;;;;;;;;;;;;;2115526;28;19924;-46
2022/08/23 06:55:03;;;;;;;;;;;;;;;;;;2115466;28;20014;-47
2022/08/23 06:56:04;;;;;;;;;;;;;;;;;;2115200;28;20273;-45
2022/08/23 06:57:05;;;;;;;;;;;;;;;;;;2115362;28;19932;-44
2022/08/23 06:58:06;;;;;;;;;;;;;;;;;;2115562;28;19966;-45
2022/08/23 06:59:07;;;;;;;;;;;;;;;;;;2115593;28;19930;-43
2022/08/23 07:00:08;;;;;;;;;;;;;;;;;;2115193;28;20289;-43
2022/08/23 07:01:09;;;;;;;;;;;;;;;;;;2115459;28;19951;-43
2022/08/23 07:02:29;;;;;;;;;;;;;;;;;;2115175;28;19924;-44
2022/08/23 07:03:30;;;;;;;;;;;;;;;;;;2115386;28;19924;-44
2022/08/23 07:04:31;;;;;;;;;;;;;;;;;;2115345;28;19924;-44
2022/08/23 07:05:32;;;;;;;;;;;;;;;;;;2115784;28;20018;-46
2022/08/23 07:06:33;;;;;;;;;;;;;;;;;;2115421;28;19977;-45
2022/08/23 07:07:34;;;;;;;;;;;;;;;;;;2114942;28;19976;-43